createdAt,value
2022-12-05T00:00:01.225Z,15.07
2022-12-05T00:01:13.084Z,15.53
2022-12-05T00:02:01.033Z,16.50
2022-12-05T00:03:03.314Z,19.97
2022-12-05T00:04:05.872Z,18.87
2022-12-05T00:05:00.933Z,22.07
2022-12-05T00:06:00.940Z,18.80
2022-12-05T00:07:01.030Z,19.27
2022-12-05T00:08:01.145Z,21.43
2022-12-05T00:09:01.576Z,17.77
2022-12-05T00:10:01.227Z,18.53
2022-12-05T00:11:01.283Z,17.10
2022-12-05T00:12:01.061Z,16.77
2022-12-05T00:13:01.305Z,16.97
2022-12-05T00:14:02.366Z,20.00
2022-12-05T00:15:01.249Z,18.30
2022-12-05T00:16:01.233Z,20.73
2022-12-05T00:17:01.324Z,22.50
2022-12-05T00:18:01.237Z,30.23
2022-12-05T00:19:02.976Z,29.40
2022-12-05T00:20:01.049Z,21.27
2022-12-05T00:21:01.309Z,15.87
2022-12-05T00:22:00.936Z,12.73
2022-12-05T00:23:01.477Z,11.23
2022-12-05T00:24:03.953Z,12.40
2022-12-05T00:25:00.946Z,12.73
2022-12-05T00:26:03.320Z,14.27
2022-12-05T00:27:01.230Z,13.57
2022-12-05T00:28:01.239Z,13.97
2022-12-05T00:29:01.080Z,14.40
2022-12-05T00:30:01.414Z,14.43
2022-12-05T00:31:02.688Z,14.77
2022-12-05T00:32:01.317Z,12.77
2022-12-05T00:33:01.868Z,13.77
2022-12-05T00:34:02.353Z,12.80
2022-12-05T00:35:00.930Z,13.23
2022-12-05T00:36:02.396Z,12.37
2022-12-05T00:37:01.237Z,13.10
2022-12-05T00:38:01.569Z,13.20
2022-12-05T00:39:04.985Z,16.07
2022-12-05T00:40:00.995Z,18.10
2022-12-05T00:41:02.529Z,18.67
2022-12-05T00:42:00.934Z,16.33
2022-12-05T00:43:01.320Z,15.23
2022-12-05T00:44:02.525Z,17.07
2022-12-05T00:45:01.210Z,21.50
2022-12-05T00:46:02.504Z,18.13
2022-12-05T00:47:00.924Z,18.83
2022-12-05T00:48:02.152Z,20.03
2022-12-05T00:49:03.112Z,21.40
2022-12-05T00:50:01.184Z,16.77
2022-12-05T00:51:03.355Z,15.20
2022-12-05T00:52:01.224Z,14.77
2022-12-05T00:53:01.241Z,15.40
2022-12-05T00:54:03.651Z,13.80
2022-12-05T00:55:00.960Z,13.63
2022-12-05T00:56:02.995Z,12.83
2022-12-05T00:57:00.932Z,12.40
2022-12-05T00:58:01.227Z,14.50
2022-12-05T00:59:02.719Z,13.27
2022-12-05T01:00:00.979Z,12.50
2022-12-05T01:01:06.114Z,15.00
2022-12-05T01:02:00.937Z,16.77
2022-12-05T01:03:01.303Z,15.97
2022-12-05T01:04:06.122Z,15.70
2022-12-05T01:05:01.459Z,17.60
2022-12-05T01:06:01.984Z,17.83
2022-12-05T01:07:01.515Z,19.07
2022-12-05T01:08:01.029Z,18.10
2022-12-05T01:09:02.759Z,17.73
2022-12-05T01:10:01.242Z,19.17
2022-12-05T01:11:02.701Z,19.03
2022-12-05T01:12:00.908Z,18.63
2022-12-05T01:13:00.927Z,15.70
2022-12-05T01:14:00.953Z,14.67
2022-12-05T01:15:01.333Z,14.00
2022-12-05T01:16:01.885Z,19.33
2022-12-05T01:17:01.342Z,19.37
2022-12-05T01:18:01.033Z,21.40
2022-12-05T01:19:04.919Z,23.57
2022-12-05T01:20:00.961Z,31.70
2022-12-05T01:21:04.792Z,22.47
2022-12-05T01:22:01.448Z,22.13
2022-12-05T01:23:00.931Z,19.97
2022-12-05T01:24:01.422Z,23.50
2022-12-05T01:25:01.078Z,21.10
2022-12-05T01:26:06.039Z,23.07
2022-12-05T01:27:00.950Z,22.97
2022-12-05T01:28:01.535Z,23.30
2022-12-05T01:29:02.425Z,21.80
2022-12-05T01:30:01.106Z,18.50
2022-12-05T01:31:05.224Z,18.33
2022-12-05T01:32:01.469Z,18.90
2022-12-05T01:33:01.044Z,22.53
2022-12-05T01:34:03.715Z,23.07
2022-12-05T01:35:01.202Z,24.47
2022-12-05T01:36:01.107Z,22.07
2022-12-05T01:37:01.052Z,22.33
2022-12-05T01:38:01.104Z,23.00
2022-12-05T01:39:02.522Z,22.00
2022-12-05T01:40:01.362Z,22.33
2022-12-05T01:41:03.384Z,25.60
2022-12-05T01:42:03.991Z,27.17
2022-12-05T01:43:01.151Z,24.37
2022-12-05T01:44:04.457Z,24.70
2022-12-05T01:45:07.043Z,30.83
2022-12-05T01:46:01.121Z,27.50
2022-12-05T01:47:01.392Z,31.80
2022-12-05T01:48:05.107Z,27.33
2022-12-05T01:49:06.925Z,25.30
2022-12-05T01:50:02.365Z,25.67
2022-12-05T01:51:02.333Z,25.93
2022-12-05T01:52:05.419Z,35.27
2022-12-05T01:53:03.759Z,37.83
2022-12-05T01:54:04.089Z,34.70
2022-12-05T01:55:06.225Z,27.63
2022-12-05T01:56:01.559Z,28.80
2022-12-05T01:57:04.536Z,33.23
2022-12-05T01:58:02.526Z,31.20
2022-12-05T01:59:03.385Z,30.93
2022-12-05T02:00:08.133Z,24.20
2022-12-05T02:01:01.749Z,24.80
2022-12-05T02:02:02.329Z,20.50
2022-12-05T02:03:06.019Z,23.43
2022-12-05T02:04:01.963Z,23.17
2022-12-05T02:05:04.901Z,24.70
2022-12-05T02:06:02.518Z,21.63
2022-12-05T02:07:01.258Z,24.77
2022-12-05T02:08:03.976Z,23.80
2022-12-05T02:09:01.773Z,22.53
2022-12-05T02:10:00.937Z,21.00
2022-12-05T02:11:01.470Z,20.53
2022-12-05T02:12:02.648Z,21.33
2022-12-05T02:13:13.547Z,20.77
2022-12-05T02:14:17.916Z,19.00
2022-12-05T02:15:14.004Z,21.43
2022-12-05T02:16:08.013Z,22.57
2022-12-05T02:17:11.382Z,20.37
2022-12-05T02:18:16.092Z,17.67
2022-12-05T02:19:14.646Z,22.30
2022-12-05T02:20:15.127Z,21.93
2022-12-05T02:21:18.261Z,18.27
2022-12-05T02:22:20.406Z,18.60
2022-12-05T02:23:20.404Z,23.50
2022-12-05T02:24:20.399Z,19.80
2022-12-05T02:25:16.618Z,18.43
2022-12-05T02:26:20.399Z,20.70
2022-12-05T02:27:15.479Z,20.63
2022-12-05T02:28:20.410Z,21.33
2022-12-05T02:29:20.411Z,17.60
2022-12-05T02:30:08.017Z,18.00
2022-12-05T02:31:08.701Z,18.87
2022-12-05T02:32:09.805Z,18.47
2022-12-05T02:33:09.695Z,22.27
2022-12-05T02:34:10.613Z,21.93
2022-12-05T02:35:12.384Z,21.00
2022-12-05T02:36:06.676Z,22.83
2022-12-05T02:37:08.162Z,19.63
2022-12-05T02:38:12.375Z,18.93
2022-12-05T02:39:11.973Z,18.80
2022-12-05T02:40:08.811Z,24.30
2022-12-05T02:41:11.184Z,19.77
2022-12-05T02:42:08.967Z,21.77
2022-12-05T02:43:10.188Z,25.23
2022-12-05T02:44:04.807Z,24.57
2022-12-05T02:45:04.655Z,24.37
2022-12-05T02:46:07.852Z,24.13
2022-12-05T02:47:03.834Z,21.23
2022-12-05T02:48:01.585Z,22.97
2022-12-05T02:49:09.520Z,21.67
2022-12-05T02:50:02.006Z,26.10
2022-12-05T02:51:03.623Z,23.73
2022-12-05T02:52:04.984Z,22.27
2022-12-05T02:53:06.574Z,21.43
2022-12-05T02:54:07.346Z,21.13
2022-12-05T02:55:02.905Z,22.90
2022-12-05T02:56:03.697Z,23.70
2022-12-05T02:57:02.070Z,21.60
2022-12-05T02:58:07.731Z,21.10
2022-12-05T02:59:01.741Z,22.50
2022-12-05T03:00:00.969Z,21.97
2022-12-05T03:01:04.198Z,22.10
2022-12-05T03:02:01.242Z,18.97
2022-12-05T03:03:01.069Z,22.17
2022-12-05T03:04:03.334Z,18.57
2022-12-05T03:05:16.373Z,20.77
2022-12-05T03:06:06.960Z,22.03
2022-12-05T03:07:07.357Z,26.87
2022-12-05T03:08:05.362Z,23.53
2022-12-05T03:09:05.996Z,23.37
2022-12-05T03:10:06.907Z,23.83
2022-12-05T03:11:02.528Z,25.20
2022-12-05T03:12:08.836Z,23.77
2022-12-05T03:13:06.403Z,23.53
2022-12-05T03:14:05.770Z,24.07
2022-12-05T03:15:05.785Z,21.83
2022-12-05T03:16:05.941Z,22.20
2022-12-05T03:17:05.139Z,23.97
2022-12-05T03:18:09.371Z,23.17
2022-12-05T03:19:10.309Z,23.20
2022-12-05T03:20:05.947Z,24.30
2022-12-05T03:21:07.679Z,23.57
2022-12-05T03:22:06.049Z,26.80
2022-12-05T03:23:05.915Z,22.90
2022-12-05T03:24:05.499Z,22.97
2022-12-05T03:25:02.980Z,23.90
2022-12-05T03:26:10.085Z,23.10
2022-12-05T03:27:11.451Z,20.73
2022-12-05T03:28:09.133Z,23.00
2022-12-05T03:29:13.106Z,24.33
2022-12-05T03:30:06.626Z,25.93
2022-12-05T03:31:08.171Z,28.53
2022-12-05T03:32:07.785Z,29.17
2022-12-05T03:33:04.970Z,24.83
2022-12-05T03:34:06.281Z,29.97
2022-12-05T03:35:07.658Z,29.83
2022-12-05T03:36:05.825Z,28.73
2022-12-05T03:37:06.309Z,27.33
2022-12-05T03:38:07.633Z,29.70
2022-12-05T03:39:08.082Z,28.27
2022-12-05T03:40:09.712Z,23.87
2022-12-05T03:41:08.712Z,30.43
2022-12-05T03:42:11.380Z,26.63
2022-12-05T03:43:07.790Z,27.00
2022-12-05T03:44:09.033Z,28.93
2022-12-05T03:45:07.242Z,23.73
2022-12-05T03:46:05.953Z,28.87
2022-12-05T03:47:10.910Z,20.83
2022-12-05T03:48:09.390Z,27.50
2022-12-05T03:49:09.001Z,30.10
2022-12-05T03:50:09.711Z,22.80
2022-12-05T03:51:04.003Z,26.23
2022-12-05T03:52:07.183Z,24.93
2022-12-05T03:53:20.727Z,21.90
2022-12-05T03:54:05.789Z,23.40
2022-12-05T03:55:04.847Z,24.27
2022-12-05T03:56:06.588Z,24.70
2022-12-05T03:57:08.109Z,20.90
2022-12-05T03:58:05.913Z,19.27
2022-12-05T03:59:08.790Z,18.63
2022-12-05T04:00:07.919Z,20.50
2022-12-05T04:01:06.604Z,21.27
2022-12-05T04:02:07.586Z,16.03
2022-12-05T04:03:07.346Z,18.50
2022-12-05T04:04:07.502Z,19.13
2022-12-05T04:05:06.909Z,21.43
2022-12-05T04:06:04.239Z,15.73
2022-12-05T04:07:05.313Z,15.47
2022-12-05T04:08:06.294Z,16.93
2022-12-05T04:09:04.921Z,18.13
2022-12-05T04:10:05.500Z,17.20
2022-12-05T04:11:07.028Z,15.97
2022-12-05T04:12:08.322Z,21.23
2022-12-05T04:13:03.707Z,15.30
2022-12-05T04:14:08.046Z,19.07
2022-12-05T04:15:07.368Z,18.13
2022-12-05T04:16:08.139Z,19.40
2022-12-05T04:17:05.661Z,18.33
2022-12-05T04:18:02.264Z,18.70
2022-12-05T04:19:05.772Z,21.07
2022-12-05T04:20:06.344Z,20.80
2022-12-05T04:21:04.768Z,21.23
2022-12-05T04:22:00.931Z,16.57
2022-12-05T04:23:01.774Z,18.30
2022-12-05T04:24:01.148Z,18.63
2022-12-05T04:25:05.810Z,22.50
2022-12-05T04:26:10.569Z,16.37
2022-12-05T04:27:12.323Z,20.47
2022-12-05T04:28:19.602Z,21.97
2022-12-05T04:29:09.650Z,21.30
2022-12-05T04:30:05.297Z,20.63
2022-12-05T04:31:07.119Z,23.20
2022-12-05T04:32:08.839Z,21.13
2022-12-05T04:33:08.004Z,24.33
2022-12-05T04:34:05.903Z,27.63
2022-12-05T04:35:08.828Z,24.63
2022-12-05T04:36:06.898Z,22.47
2022-12-05T04:37:06.727Z,30.87
2022-12-05T04:38:06.557Z,23.40
2022-12-05T04:39:04.633Z,24.57
2022-12-05T04:40:09.024Z,24.63
2022-12-05T04:41:05.461Z,25.00
2022-12-05T04:42:05.638Z,22.03
2022-12-05T04:43:03.582Z,21.37
2022-12-05T04:44:06.372Z,23.47
2022-12-05T04:45:05.457Z,22.57
2022-12-05T04:46:05.314Z,23.27
2022-12-05T04:47:04.568Z,23.40
2022-12-05T04:48:09.383Z,25.40
2022-12-05T04:49:05.766Z,20.93
2022-12-05T04:50:03.526Z,24.77
2022-12-05T04:51:03.659Z,23.40
2022-12-05T04:52:06.399Z,25.57
2022-12-05T04:53:02.419Z,23.93
2022-12-05T04:54:09.696Z,23.73
2022-12-05T04:55:08.059Z,23.03
2022-12-05T04:56:04.330Z,22.40
2022-12-05T04:57:11.814Z,23.80
2022-12-05T04:58:06.823Z,24.80
2022-12-05T04:59:01.785Z,28.73
2022-12-05T05:00:01.634Z,23.70
2022-12-05T05:01:09.781Z,19.57
2022-12-05T05:02:06.655Z,22.83
2022-12-05T05:03:11.208Z,23.47
2022-12-05T05:04:06.810Z,25.73
2022-12-05T05:05:02.584Z,26.57
2022-12-05T05:06:02.144Z,24.80
2022-12-05T05:07:05.736Z,23.73
2022-12-05T05:08:01.161Z,24.53
2022-12-05T05:09:01.590Z,22.60
2022-12-05T05:10:01.173Z,27.40
2022-12-05T05:11:06.794Z,24.60
2022-12-05T05:12:01.107Z,25.03
2022-12-05T05:13:01.223Z,23.03
2022-12-05T05:14:01.501Z,22.60
2022-12-05T05:15:01.234Z,23.10
2022-12-05T05:16:01.279Z,21.70
2022-12-05T05:17:01.664Z,22.50
2022-12-05T05:18:01.217Z,26.03
2022-12-05T05:19:01.292Z,23.00
2022-12-05T05:20:01.293Z,23.00
2022-12-05T05:21:01.234Z,21.33
2022-12-05T05:22:00.944Z,23.27
2022-12-05T05:23:01.241Z,22.00
2022-12-05T05:24:01.708Z,23.37
2022-12-05T05:25:00.924Z,24.03
2022-12-05T05:26:01.233Z,20.40
2022-12-05T05:27:01.214Z,20.30
2022-12-05T05:28:01.246Z,24.63
2022-12-05T05:29:01.287Z,20.87
2022-12-05T05:30:00.955Z,26.63
2022-12-05T05:31:02.963Z,20.13
2022-12-05T05:32:01.227Z,23.30
2022-12-05T05:33:01.001Z,23.63
2022-12-05T05:34:08.901Z,22.13
2022-12-05T05:35:00.925Z,19.60
2022-12-05T05:36:04.845Z,20.60
2022-12-05T05:37:00.934Z,20.37
2022-12-05T05:38:00.922Z,20.13
2022-12-05T05:39:02.523Z,21.83
2022-12-05T05:40:04.943Z,22.40
2022-12-05T05:41:00.936Z,19.43
2022-12-05T05:42:01.598Z,19.77
2022-12-05T05:43:01.269Z,20.37
2022-12-05T05:44:02.915Z,21.87
2022-12-05T05:45:01.268Z,19.07
2022-12-05T05:46:03.552Z,21.90
2022-12-05T05:47:00.953Z,22.10
2022-12-05T05:48:00.952Z,20.13
2022-12-05T05:49:01.274Z,20.57
2022-12-05T05:50:01.440Z,18.47
2022-12-05T05:51:02.684Z,20.43
2022-12-05T05:52:01.579Z,20.50
2022-12-05T05:53:01.499Z,18.77
2022-12-05T05:54:01.301Z,19.63
2022-12-05T05:55:02.150Z,24.47
2022-12-05T05:56:02.493Z,17.07
2022-12-05T05:57:01.230Z,22.53
2022-12-05T05:58:00.919Z,19.20
2022-12-05T05:59:02.890Z,20.53
2022-12-05T06:00:01.331Z,19.33
2022-12-05T06:01:03.827Z,23.57
2022-12-05T06:02:01.070Z,21.80
2022-12-05T06:03:01.341Z,18.37
2022-12-05T06:04:02.063Z,18.23
2022-12-05T06:05:02.304Z,19.70
2022-12-05T06:06:03.340Z,24.57
2022-12-05T06:07:02.745Z,23.73
2022-12-05T06:08:01.386Z,20.47
2022-12-05T06:09:00.979Z,19.27
2022-12-05T06:10:01.520Z,22.40
2022-12-05T06:11:05.103Z,24.00
2022-12-05T06:12:01.459Z,25.30
2022-12-05T06:13:00.919Z,26.30
2022-12-05T06:14:01.497Z,22.47
2022-12-05T06:15:01.488Z,22.40
2022-12-05T06:16:01.516Z,26.20
2022-12-05T06:17:00.915Z,22.87
2022-12-05T06:18:01.226Z,26.30
2022-12-05T06:19:00.917Z,22.53
2022-12-05T06:20:01.369Z,21.70
2022-12-05T06:21:01.728Z,29.90
2022-12-05T06:22:01.310Z,21.03
2022-12-05T06:23:00.924Z,20.87
2022-12-05T06:24:01.208Z,27.23
2022-12-05T06:25:01.683Z,19.10
2022-12-05T06:26:02.533Z,24.43
2022-12-05T06:27:01.297Z,24.23
2022-12-05T06:28:00.929Z,22.23
2022-12-05T06:29:00.955Z,25.47
2022-12-05T06:30:01.758Z,21.00
2022-12-05T06:31:07.780Z,22.03
2022-12-05T06:32:01.431Z,21.77
2022-12-05T06:33:00.917Z,21.93
2022-12-05T06:34:02.128Z,20.37
2022-12-05T06:35:01.256Z,26.57
2022-12-05T06:36:03.786Z,23.13
2022-12-05T06:37:01.217Z,25.57
2022-12-05T06:38:01.729Z,23.47
2022-12-05T06:39:01.803Z,23.07
2022-12-05T06:40:01.952Z,22.87
2022-12-05T06:41:04.931Z,24.23
2022-12-05T06:42:01.234Z,24.83
2022-12-05T06:43:01.370Z,24.47
2022-12-05T06:44:02.692Z,20.40
2022-12-05T06:45:01.610Z,20.27
2022-12-05T06:46:05.570Z,22.10
2022-12-05T06:47:00.943Z,23.90
2022-12-05T06:48:01.173Z,21.97
2022-12-05T06:49:01.058Z,23.90
2022-12-05T06:50:01.447Z,23.57
2022-12-05T06:51:02.480Z,22.27
2022-12-05T06:52:01.231Z,23.07
2022-12-05T06:53:01.622Z,23.93
2022-12-05T06:54:01.219Z,21.70
2022-12-05T06:55:00.968Z,23.70
2022-12-05T06:56:03.381Z,27.70
2022-12-05T06:57:00.932Z,27.03
2022-12-05T06:58:00.930Z,35.90
2022-12-05T06:59:01.182Z,30.93
2022-12-05T07:00:01.730Z,22.30
2022-12-05T07:01:00.978Z,22.87
2022-12-05T07:02:01.287Z,23.87
2022-12-05T07:03:01.215Z,21.60
2022-12-05T07:04:02.177Z,23.70
2022-12-05T07:05:01.221Z,21.60
2022-12-05T07:06:01.581Z,18.87
2022-12-05T07:07:01.249Z,24.17
2022-12-05T07:08:00.931Z,21.77
2022-12-05T07:09:01.233Z,31.63
2022-12-05T07:10:01.785Z,18.77
2022-12-05T07:11:01.683Z,24.63
2022-12-05T07:12:00.930Z,22.40
2022-12-05T07:13:01.237Z,21.20
2022-12-05T07:14:01.064Z,24.13
2022-12-05T07:15:01.800Z,23.07
2022-12-05T07:16:01.393Z,22.10
2022-12-05T07:17:00.969Z,23.63
2022-12-05T07:18:00.949Z,27.37
2022-12-05T07:19:01.738Z,20.70
2022-12-05T07:20:01.475Z,19.13
2022-12-05T07:21:11.724Z,19.17
2022-12-05T07:22:01.624Z,24.00
2022-12-05T07:23:01.201Z,20.40
2022-12-05T07:24:01.464Z,17.47
2022-12-05T07:25:00.994Z,23.43
2022-12-05T07:26:03.638Z,19.50
2022-12-05T07:27:01.374Z,21.47
2022-12-05T07:28:00.922Z,18.80
2022-12-05T07:29:00.918Z,18.13
2022-12-05T07:30:01.471Z,18.87
2022-12-05T07:31:02.073Z,20.10
2022-12-05T07:32:01.544Z,18.63
2022-12-05T07:33:00.942Z,19.17
2022-12-05T07:34:01.227Z,21.00
2022-12-05T07:35:01.242Z,19.03
2022-12-05T07:36:02.522Z,21.73
2022-12-05T07:37:00.951Z,19.87
2022-12-05T07:38:00.939Z,19.70
2022-12-05T07:39:01.233Z,20.20
2022-12-05T07:40:01.200Z,17.43
2022-12-05T07:41:06.778Z,19.00
2022-12-05T07:42:01.276Z,20.10
2022-12-05T07:43:01.525Z,22.40
2022-12-05T07:44:01.152Z,18.43
2022-12-05T07:45:00.916Z,22.10
2022-12-05T07:46:02.617Z,24.10
2022-12-05T07:47:01.226Z,22.47
2022-12-05T07:48:01.283Z,22.10
2022-12-05T07:49:01.628Z,21.13
2022-12-05T07:50:01.354Z,18.53
2022-12-05T07:51:02.707Z,22.37
2022-12-05T07:52:01.225Z,19.20
2022-12-05T07:53:00.983Z,20.67
2022-12-05T07:54:01.876Z,19.10
2022-12-05T07:55:00.926Z,21.53
2022-12-05T07:56:03.363Z,20.50
2022-12-05T07:57:01.536Z,23.10
2022-12-05T07:58:00.952Z,18.63
2022-12-05T07:59:01.293Z,23.07
2022-12-05T08:00:01.169Z,22.80
2022-12-05T08:01:06.849Z,18.70
2022-12-05T08:02:01.337Z,19.07
2022-12-05T08:03:02.016Z,20.97
2022-12-05T08:04:01.263Z,21.50
2022-12-05T08:05:01.231Z,19.20
2022-12-05T08:06:01.448Z,24.23
2022-12-05T08:07:01.235Z,22.63
2022-12-05T08:08:01.993Z,23.53
2022-12-05T08:09:01.271Z,23.77
2022-12-05T08:10:01.326Z,23.47
2022-12-05T08:11:03.841Z,24.57
2022-12-05T08:12:01.239Z,20.43
2022-12-05T08:13:00.957Z,21.37
2022-12-05T08:14:02.398Z,21.93
2022-12-05T08:15:00.916Z,22.03
2022-12-05T08:16:02.573Z,23.87
2022-12-05T08:17:00.985Z,25.70
2022-12-05T08:18:00.932Z,24.10
2022-12-05T08:19:03.515Z,22.90
2022-12-05T08:20:00.963Z,21.80
2022-12-05T08:21:02.661Z,24.60
2022-12-05T08:22:01.268Z,22.47
2022-12-05T08:23:00.933Z,25.93
2022-12-05T08:24:03.880Z,24.00
2022-12-05T08:25:01.221Z,24.87
2022-12-05T08:26:02.938Z,25.53
2022-12-05T08:27:01.111Z,27.30
2022-12-05T08:28:01.248Z,20.93
2022-12-05T08:29:03.922Z,24.20
2022-12-05T08:30:01.324Z,21.67
2022-12-05T08:31:06.630Z,22.37
2022-12-05T08:32:01.241Z,21.80
2022-12-05T08:33:01.233Z,23.30
2022-12-05T08:34:01.398Z,21.63
2022-12-05T08:35:00.940Z,22.70
2022-12-05T08:36:02.755Z,27.37
2022-12-05T08:37:01.219Z,22.47
2022-12-05T08:38:01.734Z,23.63
2022-12-05T08:39:03.586Z,22.13
2022-12-05T08:40:00.922Z,21.33
2022-12-05T08:41:02.512Z,26.47
2022-12-05T08:42:01.300Z,23.17
2022-12-05T08:43:01.239Z,24.23
2022-12-05T08:44:03.413Z,27.17
2022-12-05T08:45:01.111Z,26.40
2022-12-05T08:46:02.216Z,22.17
2022-12-05T08:47:00.975Z,26.57
2022-12-05T08:48:00.936Z,26.27
2022-12-05T08:49:01.850Z,22.50
2022-12-05T08:50:01.123Z,24.23
2022-12-05T08:51:05.117Z,21.97
2022-12-05T08:52:01.261Z,26.07
2022-12-05T08:53:01.265Z,21.97
2022-12-05T08:54:01.983Z,24.33
2022-12-05T08:55:01.080Z,21.20
2022-12-05T08:56:01.961Z,27.20
2022-12-05T08:57:01.530Z,25.87
2022-12-05T08:58:01.771Z,27.33
2022-12-05T08:59:04.745Z,25.73
2022-12-05T09:00:01.365Z,25.83
2022-12-05T09:01:03.458Z,25.30
2022-12-05T09:02:00.927Z,23.50
2022-12-05T09:03:01.314Z,22.13
2022-12-05T09:04:01.434Z,26.07
2022-12-05T09:05:13.601Z,24.40
2022-12-05T09:06:10.663Z,26.53
2022-12-05T09:07:02.379Z,24.53
2022-12-05T09:08:01.281Z,26.73
2022-12-05T09:09:03.556Z,29.87
2022-12-05T09:10:01.231Z,20.23
2022-12-05T09:11:04.723Z,27.13
2022-12-05T09:12:01.337Z,21.97
2022-12-05T09:13:01.247Z,26.87
2022-12-05T09:14:02.271Z,24.90
2022-12-05T09:15:01.220Z,27.33
2022-12-05T09:16:05.500Z,27.93
2022-12-05T09:17:00.919Z,27.87
2022-12-05T09:18:00.913Z,27.13
2022-12-05T09:19:00.991Z,27.63
2022-12-05T09:20:01.168Z,28.00
2022-12-05T09:21:05.235Z,26.77
2022-12-05T09:22:01.572Z,22.90
2022-12-05T09:23:00.914Z,30.00
2022-12-05T09:24:01.372Z,23.77
2022-12-05T09:25:01.028Z,23.53
2022-12-05T09:26:01.312Z,27.00
2022-12-05T09:27:01.638Z,26.23
2022-12-05T09:28:00.917Z,23.53
2022-12-05T09:29:02.156Z,22.17
2022-12-05T09:30:00.951Z,23.27
2022-12-05T09:31:05.101Z,23.77
2022-12-05T09:32:00.939Z,22.33
2022-12-05T09:33:01.176Z,20.87
2022-12-05T09:34:01.239Z,21.53
2022-12-05T09:35:01.183Z,26.93
2022-12-05T09:36:02.616Z,28.90
2022-12-05T09:37:16.610Z,24.03
2022-12-05T09:38:01.223Z,19.67
2022-12-05T09:39:05.244Z,21.43
2022-12-05T09:40:01.229Z,24.27
2022-12-05T09:41:13.409Z,22.07
2022-12-05T09:42:12.699Z,27.77
2022-12-05T09:43:05.912Z,27.77
2022-12-05T09:44:11.997Z,23.97
2022-12-05T09:45:05.216Z,23.40
2022-12-05T09:46:12.038Z,26.47
2022-12-05T09:47:08.109Z,21.93
2022-12-05T09:48:10.495Z,24.97
2022-12-05T09:49:03.765Z,27.13
2022-12-05T09:50:11.921Z,27.13
2022-12-05T09:51:02.516Z,26.83
2022-12-05T09:52:03.344Z,22.60
2022-12-05T09:53:06.599Z,24.27
2022-12-05T09:54:02.839Z,25.70
2022-12-05T09:55:09.961Z,23.27
2022-12-05T09:56:04.797Z,25.20
2022-12-05T09:57:02.735Z,23.50
2022-12-05T09:58:04.611Z,25.47
2022-12-05T09:59:01.042Z,20.37
2022-12-05T10:00:04.429Z,26.17
2022-12-05T10:01:09.679Z,22.90
2022-12-05T10:02:13.438Z,22.37
2022-12-05T10:03:11.971Z,24.00
2022-12-05T10:04:17.954Z,23.23
2022-12-05T10:05:07.073Z,26.47
2022-12-05T10:06:11.622Z,22.10
2022-12-05T10:07:09.715Z,26.60
2022-12-05T10:08:11.948Z,27.27
2022-12-05T10:09:17.584Z,25.00
2022-12-05T10:10:20.284Z,22.33
2022-12-05T10:11:05.862Z,23.83
2022-12-05T10:12:15.098Z,23.13
2022-12-05T10:13:13.239Z,26.60
2022-12-05T10:14:08.020Z,27.00
2022-12-05T10:15:10.042Z,20.37
2022-12-05T10:16:07.074Z,28.10
2022-12-05T10:17:08.635Z,23.17
2022-12-05T10:18:08.700Z,25.03
2022-12-05T10:19:06.502Z,21.27
2022-12-05T10:20:05.140Z,32.67
2022-12-05T10:21:05.349Z,24.83
2022-12-05T10:22:10.304Z,22.70
2022-12-05T10:23:05.840Z,23.37
2022-12-05T10:24:03.277Z,25.17
2022-12-05T10:25:05.051Z,25.77
2022-12-05T10:26:04.751Z,25.87
2022-12-05T10:27:05.147Z,23.20
2022-12-05T10:28:10.751Z,23.73
2022-12-05T10:29:12.379Z,22.83
2022-12-05T10:30:04.132Z,28.20
2022-12-05T10:31:07.003Z,24.97
2022-12-05T10:32:07.479Z,25.27
2022-12-05T10:33:07.914Z,29.33
2022-12-05T10:34:09.627Z,23.23
2022-12-05T10:35:15.637Z,23.50
2022-12-05T10:36:08.467Z,22.77
2022-12-05T10:37:09.602Z,24.77
2022-12-05T10:38:04.797Z,23.83
2022-12-05T10:39:01.227Z,23.97
2022-12-05T10:40:00.942Z,24.13
2022-12-05T10:41:07.678Z,26.97
2022-12-05T10:42:01.295Z,26.47
2022-12-05T10:43:01.251Z,21.53
2022-12-05T10:44:01.264Z,22.57
2022-12-05T10:45:04.994Z,26.70
2022-12-05T10:46:02.220Z,26.00
2022-12-05T10:47:01.394Z,23.67
2022-12-05T10:48:01.252Z,23.23
2022-12-05T10:49:01.731Z,28.53
2022-12-05T10:50:07.138Z,20.83
2022-12-05T10:51:02.800Z,24.77
2022-12-05T10:52:01.400Z,25.30
2022-12-05T10:53:03.162Z,22.90
2022-12-05T10:54:12.029Z,22.63
2022-12-05T10:55:04.687Z,25.40
2022-12-05T10:56:29.771Z,22.80
2022-12-05T10:57:10.814Z,23.83
2022-12-05T10:58:16.994Z,22.57
2022-12-05T10:59:01.272Z,27.83
2022-12-05T11:00:10.419Z,25.97
2022-12-05T11:01:08.905Z,27.87
2022-12-05T11:02:00.987Z,25.87
2022-12-05T11:03:04.514Z,27.47
2022-12-05T11:04:13.330Z,25.77
2022-12-05T11:05:02.435Z,24.47
2022-12-05T11:06:02.897Z,27.73
2022-12-05T11:07:03.782Z,28.63
2022-12-05T11:08:01.277Z,25.77
2022-12-05T11:09:12.766Z,22.27
2022-12-05T11:10:11.563Z,24.77
2022-12-05T11:11:03.278Z,22.03
2022-12-05T11:12:12.078Z,20.23
2022-12-05T11:13:11.140Z,21.93
2022-12-05T11:14:03.293Z,21.40
2022-12-05T11:15:04.401Z,25.80
2022-12-05T11:16:01.294Z,26.13
2022-12-05T11:17:02.647Z,25.37
2022-12-05T11:18:17.981Z,25.93
2022-12-05T11:19:19.166Z,26.93
2022-12-05T11:20:03.051Z,29.43
2022-12-05T11:21:09.461Z,27.73
2022-12-05T11:22:01.449Z,23.73
2022-12-05T11:23:17.477Z,25.93
2022-12-05T11:24:20.364Z,21.07
2022-12-05T11:25:10.991Z,22.23
2022-12-05T11:26:00.992Z,22.57
2022-12-05T11:27:20.402Z,24.70
2022-12-05T11:28:20.398Z,24.80
2022-12-05T11:29:01.450Z,23.67
2022-12-05T11:30:14.267Z,24.13
2022-12-05T11:31:04.214Z,24.63
2022-12-05T11:32:02.112Z,23.03
2022-12-05T11:33:11.688Z,22.27
2022-12-05T11:34:11.044Z,24.57
2022-12-05T11:35:08.800Z,24.30
2022-12-05T11:36:10.808Z,25.63
2022-12-05T11:37:08.795Z,21.67
2022-12-05T11:38:03.656Z,21.60
2022-12-05T11:39:00.914Z,21.13
2022-12-05T11:40:02.420Z,18.90
2022-12-05T11:41:13.506Z,21.80
2022-12-05T11:42:20.430Z,27.67
2022-12-05T11:43:20.395Z,21.77
2022-12-05T11:44:18.071Z,22.93
2022-12-05T11:45:12.333Z,23.17
2022-12-05T11:46:09.923Z,20.17
2022-12-05T11:47:15.440Z,21.77
2022-12-05T11:48:19.319Z,20.53
2022-12-05T11:49:15.578Z,23.60
2022-12-05T11:50:18.505Z,24.57
2022-12-05T11:51:20.395Z,21.60
2022-12-05T11:52:11.387Z,24.43
2022-12-05T11:53:17.333Z,24.70
2022-12-05T11:54:35.581Z,24.97
2022-12-05T11:55:14.207Z,23.43
2022-12-05T11:56:08.781Z,24.80
2022-12-05T11:57:13.961Z,25.53
2022-12-05T11:58:20.428Z,25.00
2022-12-05T11:59:20.398Z,23.37
2022-12-05T12:00:10.933Z,23.93
2022-12-05T12:01:10.551Z,22.77
2022-12-05T12:02:16.426Z,25.30
2022-12-05T12:03:20.527Z,22.87
2022-12-05T12:04:20.427Z,24.60
2022-12-05T12:05:13.035Z,21.83
2022-12-05T12:06:18.722Z,21.93
2022-12-05T12:07:15.985Z,22.77
2022-12-05T12:08:13.367Z,23.37
2022-12-05T12:09:15.471Z,23.27
2022-12-05T12:10:12.948Z,23.77
2022-12-05T12:11:12.086Z,29.33
2022-12-05T12:12:06.083Z,27.27
2022-12-05T12:13:17.355Z,24.00
2022-12-05T12:14:12.635Z,28.97
2022-12-05T12:15:18.423Z,27.90
2022-12-05T12:16:08.799Z,28.43
2022-12-05T12:17:13.352Z,31.87
2022-12-05T12:18:10.649Z,28.17
2022-12-05T12:19:15.516Z,22.83
2022-12-05T12:20:17.542Z,27.23
2022-12-05T12:21:15.551Z,24.13
2022-12-05T12:22:16.529Z,27.33
2022-12-05T12:23:19.605Z,28.73
2022-12-05T12:24:10.818Z,27.37
2022-12-05T12:25:17.602Z,24.23
2022-12-05T12:26:09.930Z,27.13
2022-12-05T12:27:13.017Z,22.93
2022-12-05T12:28:11.252Z,23.47
2022-12-05T12:29:14.887Z,27.97
2022-12-05T12:30:10.277Z,22.67
2022-12-05T12:31:12.857Z,26.47
2022-12-05T12:32:18.146Z,28.03
2022-12-05T12:33:08.871Z,22.37
2022-12-05T12:34:15.593Z,22.63
2022-12-05T12:35:15.164Z,22.70
2022-12-05T12:36:12.532Z,23.80
2022-12-05T12:37:08.251Z,24.17
2022-12-05T12:38:18.399Z,24.40
2022-12-05T12:39:09.088Z,26.10
2022-12-05T12:40:12.473Z,25.17
2022-12-05T12:41:11.343Z,24.23
2022-12-05T12:42:19.907Z,27.70
2022-12-05T12:43:44.950Z,26.17
2022-12-05T12:44:14.778Z,22.10
2022-12-05T12:45:20.399Z,24.17
2022-12-05T12:46:15.587Z,24.40
2022-12-05T12:47:03.721Z,22.53
2022-12-05T12:48:14.053Z,24.00
2022-12-05T12:49:16.275Z,21.57
2022-12-05T12:50:10.968Z,24.80
2022-12-05T12:51:02.491Z,27.33
2022-12-05T12:52:04.079Z,24.83